createdAt,value
2019-06-20T00:00:06.197Z,18.80
2019-06-20T00:02:34.414Z,18.90
2019-06-20T00:05:02.978Z,18.80
2019-06-20T00:07:31.257Z,18.90
2019-06-20T00:09:59.469Z,18.90
2019-06-20T00:12:27.760Z,18.90
2019-06-20T00:14:55.965Z,18.90
2019-06-20T00:17:24.165Z,18.90
2019-06-20T00:19:52.375Z,18.90
2019-06-20T00:22:20.629Z,18.80
2019-06-20T00:24:48.832Z,18.70
2019-06-20T00:27:17.085Z,18.70
2019-06-20T00:29:45.299Z,18.70
2019-06-20T00:32:13.504Z,18.70
2019-06-20T00:34:41.751Z,18.70
2019-06-20T00:37:09.940Z,18.60
2019-06-20T00:39:38.163Z,18.60
2019-06-20T00:42:06.370Z,18.60
2019-06-20T00:44:34.577Z,18.60
2019-06-20T00:47:02.788Z,18.70
2019-06-20T00:49:30.989Z,18.70
2019-06-20T00:51:59.199Z,18.70
2019-06-20T00:54:27.402Z,18.70
2019-06-20T00:56:55.611Z,18.60
2019-06-20T00:59:23.812Z,18.60
2019-06-20T01:01:52.027Z,18.50
2019-06-20T01:04:20.232Z,18.50
2019-06-20T01:06:48.447Z,18.50
2019-06-20T01:09:16.652Z,18.50
2019-06-20T01:11:44.851Z,18.50
2019-06-20T01:14:13.064Z,18.50
2019-06-20T01:16:41.277Z,18.60
2019-06-20T01:19:09.474Z,18.60
2019-06-20T01:21:37.676Z,18.60
2019-06-20T01:24:05.890Z,18.60
2019-06-20T01:26:34.090Z,18.60
2019-06-20T01:29:02.366Z,18.60
2019-06-20T01:31:30.580Z,18.60
2019-06-20T01:33:58.792Z,18.60
2019-06-20T01:36:27.003Z,18.50
2019-06-20T01:38:55.239Z,18.50
2019-06-20T01:41:23.614Z,18.50
2019-06-20T01:43:51.828Z,18.50
2019-06-20T01:46:20.048Z,18.50
2019-06-20T01:48:48.272Z,18.50
2019-06-20T01:51:16.475Z,18.50
2019-06-20T01:53:44.690Z,18.50
2019-06-20T01:56:12.956Z,18.50
2019-06-20T01:58:41.180Z,18.50
2019-06-20T02:01:09.427Z,18.50
2019-06-20T02:03:37.684Z,18.40
2019-06-20T02:06:05.886Z,18.50
2019-06-20T02:08:34.092Z,18.50
2019-06-20T02:11:02.307Z,18.50
2019-06-20T02:13:30.508Z,18.50
2019-06-20T02:15:58.736Z,18.60
2019-06-20T02:18:26.941Z,18.50
2019-06-20T02:20:57.345Z,18.50
2019-06-20T02:23:24.872Z,18.50
2019-06-20T02:25:53.404Z,18.40
2019-06-20T02:28:22.486Z,18.30
2019-06-20T02:30:50.691Z,18.30
2019-06-20T02:33:18.885Z,18.20
2019-06-20T02:35:47.094Z,18.20
2019-06-20T02:38:15.297Z,18.10
2019-06-20T02:40:43.580Z,18.00
2019-06-20T02:43:11.788Z,18.00
2019-06-20T02:45:40.172Z,17.90
2019-06-20T02:48:08.403Z,18.00
2019-06-20T02:50:36.577Z,18.00
2019-06-20T02:53:05.067Z,18.10
2019-06-20T02:55:33.267Z,18.10
2019-06-20T02:58:01.544Z,18.20
2019-06-20T03:00:38.748Z,18.20
2019-06-20T03:03:06.976Z,18.20
2019-06-20T03:05:35.185Z,18.20
2019-06-20T03:08:03.436Z,18.20
2019-06-20T03:10:31.688Z,18.20
2019-06-20T03:12:59.883Z,18.20
2019-06-20T03:15:28.105Z,18.30
2019-06-20T03:17:56.304Z,18.30
2019-06-20T03:20:24.540Z,18.20
2019-06-20T03:22:52.773Z,18.30
2019-06-20T03:25:21.024Z,18.20
2019-06-20T03:27:49.378Z,18.30
2019-06-20T03:30:17.592Z,18.20
2019-06-20T03:32:45.800Z,18.30
2019-06-20T03:35:13.996Z,18.20
2019-06-20T03:37:42.219Z,18.20
2019-06-20T03:40:10.498Z,18.10
2019-06-20T03:42:38.730Z,18.10
2019-06-20T03:45:06.942Z,18.10
2019-06-20T03:47:35.165Z,18.00
2019-06-20T03:50:05.404Z,18.10
2019-06-20T03:52:33.608Z,18.10
2019-06-20T03:55:01.892Z,18.10
2019-06-20T03:57:30.105Z,18.00
2019-06-20T03:59:58.309Z,18.10
2019-06-20T04:02:26.520Z,18.10
2019-06-20T04:04:54.742Z,18.10
2019-06-20T04:07:22.954Z,18.20
2019-06-20T04:09:51.165Z,18.10
2019-06-20T04:12:19.389Z,18.10
2019-06-20T04:14:49.094Z,18.20
2019-06-20T04:17:17.566Z,18.10
2019-06-20T04:19:45.804Z,18.20
2019-06-20T04:22:14.019Z,18.20
2019-06-20T04:24:42.228Z,18.20
2019-06-20T04:27:10.480Z,18.20
2019-06-20T04:29:38.695Z,18.20
2019-06-20T04:32:06.923Z,18.30
2019-06-20T04:34:35.155Z,18.30
2019-06-20T04:37:03.359Z,18.20
2019-06-20T04:39:31.588Z,18.20
2019-06-20T04:41:59.828Z,18.20
2019-06-20T04:44:28.079Z,18.20
2019-06-20T04:46:57.939Z,18.10
2019-06-20T04:49:26.209Z,18.10
2019-06-20T04:51:54.416Z,18.10
2019-06-20T04:54:22.620Z,18.00
2019-06-20T04:56:50.828Z,18.00
2019-06-20T04:59:19.046Z,18.10
2019-06-20T05:01:47.248Z,18.10
2019-06-20T05:04:15.535Z,18.10
2019-06-20T05:06:45.370Z,18.20
2019-06-20T05:09:13.571Z,18.30
2019-06-20T05:11:41.805Z,18.30
2019-06-20T05:14:10.009Z,18.50
2019-06-20T05:16:38.232Z,18.60
2019-06-20T05:19:06.485Z,18.70
2019-06-20T05:21:34.688Z,18.80
2019-06-20T05:24:02.905Z,18.90
2019-06-20T05:26:31.105Z,19.00
2019-06-20T05:28:59.316Z,19.00
2019-06-20T05:31:27.512Z,18.90
2019-06-20T05:33:55.750Z,18.90
2019-06-20T05:36:23.951Z,18.80
2019-06-20T05:38:52.219Z,18.80
2019-06-20T05:41:20.452Z,18.90
2019-06-20T05:43:48.655Z,18.90
2019-06-20T05:46:16.864Z,19.00
2019-06-20T05:48:45.095Z,19.00
2019-06-20T05:51:13.316Z,19.10
2019-06-20T05:53:41.508Z,19.10
2019-06-20T05:56:09.732Z,19.30
2019-06-20T05:58:37.943Z,19.40
2019-06-20T06:01:06.164Z,19.60
2019-06-20T06:03:34.371Z,19.80
2019-06-20T06:06:02.584Z,19.80
2019-06-20T06:08:30.807Z,20.00
2019-06-20T06:10:59.003Z,20.20
2019-06-20T06:13:27.219Z,20.50
2019-06-20T06:15:55.435Z,20.80
2019-06-20T06:18:23.655Z,21.00
2019-06-20T06:20:51.855Z,21.20
2019-06-20T06:23:20.063Z,21.30
2019-06-20T06:25:48.277Z,21.30
2019-06-20T06:28:16.495Z,21.30
2019-06-20T06:30:44.770Z,21.20
2019-06-20T06:33:13.419Z,21.10
2019-06-20T06:35:41.665Z,20.90
2019-06-20T06:38:10.106Z,20.80
2019-06-20T06:40:38.272Z,20.80
2019-06-20T06:43:06.507Z,20.80
2019-06-20T06:45:34.692Z,21.00
2019-06-20T06:48:02.897Z,21.30
2019-06-20T06:50:31.112Z,21.80
2019-06-20T06:52:59.309Z,22.20
2019-06-20T06:55:28.011Z,22.20
2019-06-20T06:57:56.381Z,22.00
2019-06-20T07:00:24.610Z,22.00
2019-06-20T07:02:53.115Z,21.70
2019-06-20T07:05:21.322Z,21.50
2019-06-20T07:07:49.573Z,21.40
2019-06-20T07:10:17.788Z,21.20
2019-06-20T07:12:45.985Z,21.10
2019-06-20T07:15:14.866Z,21.10
2019-06-20T07:17:43.126Z,21.00
2019-06-20T07:20:14.931Z,21.00
2019-06-20T07:22:41.327Z,21.20
2019-06-20T07:25:09.563Z,21.20
2019-06-20T07:27:37.898Z,21.30
2019-06-20T07:30:07.085Z,21.50
2019-06-20T07:32:35.284Z,21.60
2019-06-20T07:35:05.797Z,21.80
2019-06-20T07:37:34.005Z,22.00
2019-06-20T07:40:02.486Z,22.10
2019-06-20T07:42:30.729Z,22.10
2019-06-20T07:44:58.944Z,22.10
2019-06-20T07:47:27.190Z,22.10
2019-06-20T07:49:55.442Z,22.20
2019-06-20T07:52:23.731Z,21.90
2019-06-20T07:54:51.925Z,22.10
2019-06-20T07:57:20.200Z,22.60
2019-06-20T07:59:48.416Z,23.10
2019-06-20T08:02:16.624Z,23.40
2019-06-20T08:04:44.837Z,23.50
2019-06-20T08:07:13.053Z,23.70
2019-06-20T08:09:45.106Z,23.40
2019-06-20T08:12:11.333Z,23.00
2019-06-20T08:14:39.516Z,22.90
2019-06-20T08:17:07.736Z,23.20
2019-06-20T08:19:35.940Z,23.30
2019-06-20T08:22:04.195Z,23.00
2019-06-20T08:24:32.396Z,23.40
2019-06-20T08:27:00.611Z,23.30
2019-06-20T08:29:28.815Z,23.10
2019-06-20T08:31:57.928Z,23.50
2019-06-20T08:34:27.013Z,24.30
2019-06-20T08:36:57.178Z,24.70
2019-06-20T08:39:29.160Z,25.30
2019-06-20T08:41:55.451Z,26.10
2019-06-20T08:44:23.948Z,26.40
2019-06-20T08:46:52.188Z,25.80
2019-06-20T08:49:20.438Z,25.50
2019-06-20T08:51:48.684Z,25.40
2019-06-20T08:54:16.879Z,25.30
2019-06-20T08:56:45.151Z,25.50
2019-06-20T08:59:23.976Z,25.00
2019-06-20T09:01:43.902Z,24.80
2019-06-20T09:04:12.132Z,25.30
2019-06-20T09:06:40.324Z,26.00
2019-06-20T09:09:08.524Z,26.40
2019-06-20T09:11:36.736Z,26.70
2019-06-20T09:14:05.022Z,26.50
2019-06-20T09:16:33.243Z,27.00
2019-06-20T09:19:02.606Z,27.50
2019-06-20T09:21:30.950Z,26.90
2019-06-20T09:23:59.938Z,27.40
2019-06-20T09:26:28.244Z,27.80
2019-06-20T09:28:57.174Z,28.40
2019-06-20T09:31:25.584Z,28.80
2019-06-20T09:33:53.863Z,29.30
2019-06-20T09:36:22.108Z,29.10
2019-06-20T09:38:50.680Z,28.60
2019-06-20T09:41:20.346Z,29.40
2019-06-20T09:43:50.216Z,30.30
2019-06-20T09:46:18.505Z,29.90
2019-06-20T09:48:46.712Z,29.70
2019-06-20T09:51:14.936Z,28.70
2019-06-20T09:53:43.157Z,27.30
2019-06-20T09:56:11.434Z,26.60
2019-06-20T09:58:39.633Z,27.10
2019-06-20T10:01:07.841Z,27.30
2019-06-20T10:03:36.072Z,26.80
2019-06-20T10:06:13.418Z,26.90
2019-06-20T10:08:34.239Z,27.60
2019-06-20T10:11:02.445Z,28.60
2019-06-20T10:13:32.782Z,28.80
2019-06-20T10:15:59.956Z,27.50
2019-06-20T10:18:28.171Z,27.10
2019-06-20T10:20:57.696Z,26.50
2019-06-20T10:23:26.060Z,26.00
2019-06-20T10:25:54.259Z,25.60
2019-06-20T10:28:22.476Z,26.80
2019-06-20T10:30:51.147Z,28.50
2019-06-20T10:33:19.510Z,30.10
2019-06-20T10:35:48.451Z,30.60
2019-06-20T10:38:16.679Z,31.90
2019-06-20T10:40:46.350Z,32.60
2019-06-20T10:43:14.982Z,33.20
2019-06-20T10:45:44.214Z,32.90
2019-06-20T10:48:13.132Z,31.00
2019-06-20T10:50:42.614Z,28.90
2019-06-20T10:53:11.308Z,28.90
2019-06-20T10:55:41.467Z,29.20
2019-06-20T10:58:09.625Z,27.90
2019-06-20T11:00:37.861Z,26.70
2019-06-20T11:03:06.072Z,26.40
2019-06-20T11:05:34.298Z,26.60
2019-06-20T11:08:02.504Z,27.20
2019-06-20T11:10:30.705Z,27.40
2019-06-20T11:12:58.928Z,27.90
2019-06-20T11:15:27.204Z,29.40
2019-06-20T11:17:56.911Z,31.00
2019-06-20T11:20:25.425Z,30.90
2019-06-20T11:22:53.624Z,31.00
2019-06-20T11:25:21.927Z,30.60
2019-06-20T11:27:50.149Z,30.30
2019-06-20T11:30:27.991Z,30.40
2019-06-20T11:32:56.203Z,30.00
2019-06-20T11:35:24.399Z,30.00
2019-06-20T11:37:52.608Z,29.30
2019-06-20T11:40:21.891Z,29.20
2019-06-20T11:42:50.264Z,28.20
2019-06-20T11:45:18.522Z,28.00
2019-06-20T11:47:47.336Z,28.10
2019-06-20T11:50:15.971Z,27.90
2019-06-20T11:52:45.758Z,28.10
2019-06-20T11:55:14.577Z,28.60
2019-06-20T11:57:42.887Z,28.70
2019-06-20T12:00:11.516Z,28.00
2019-06-20T12:02:42.000Z,28.00
2019-06-20T12:05:09.273Z,27.90
2019-06-20T12:07:39.553Z,28.20
2019-06-20T12:10:07.564Z,28.50
2019-06-20T12:12:35.791Z,27.90
2019-06-20T12:15:08.348Z,28.30
2019-06-20T12:17:39.304Z,28.10
2019-06-20T12:20:07.087Z,27.90
2019-06-20T12:22:35.327Z,27.90
2019-06-20T12:25:05.594Z,28.20
2019-06-20T12:27:33.807Z,28.40
2019-06-20T12:30:02.290Z,28.30
2019-06-20T12:32:30.610Z,28.20
2019-06-20T12:34:58.856Z,28.10
2019-06-20T12:37:27.084Z,27.90
2019-06-20T12:39:56.946Z,27.50
2019-06-20T12:42:25.174Z,26.90
2019-06-20T12:44:53.471Z,26.40
2019-06-20T12:47:21.664Z,26.30
2019-06-20T12:49:50.719Z,26.30
2019-06-20T12:52:20.648Z,26.40
2019-06-20T12:54:50.515Z,26.80
2019-06-20T12:57:19.385Z,27.30
2019-06-20T12:59:48.288Z,27.40
2019-06-20T13:02:16.796Z,27.40
2019-06-20T13:04:45.996Z,27.50
2019-06-20T13:07:14.482Z,27.40
2019-06-20T13:09:43.969Z,26.80
2019-06-20T13:12:12.425Z,26.80
2019-06-20T13:14:40.905Z,26.70
2019-06-20T13:17:09.213Z,26.90
2019-06-20T13:19:37.745Z,27.50
2019-06-20T13:22:07.057Z,27.70
2019-06-20T13:24:35.283Z,27.90
2019-06-20T13:27:03.476Z,27.70
2019-06-20T13:29:31.689Z,27.80
2019-06-20T13:32:04.388Z,27.80
2019-06-20T13:34:29.822Z,27.60
2019-06-20T13:36:58.039Z,28.00
2019-06-20T13:39:26.244Z,28.00
2019-06-20T13:41:54.460Z,28.50
2019-06-20T13:44:23.645Z,29.10
2019-06-20T13:46:52.164Z,29.20
2019-06-20T13:49:20.386Z,29.80
2019-06-20T13:51:50.161Z,29.30
2019-06-20T13:54:18.601Z,28.80
2019-06-20T13:56:47.512Z,28.50
2019-06-20T13:59:15.847Z,28.10
2019-06-20T14:01:45.618Z,27.90
2019-06-20T14:04:13.292Z,27.70
2019-06-20T14:06:42.553Z,27.70
2019-06-20T14:09:10.756Z,27.70
2019-06-20T14:11:40.047Z,28.20
2019-06-20T14:14:09.236Z,29.00
2019-06-20T14:16:37.417Z,29.50
2019-06-20T14:19:05.627Z,30.20
2019-06-20T14:21:34.003Z,30.40
2019-06-20T14:24:02.228Z,30.20
2019-06-20T14:26:30.431Z,29.70
2019-06-20T14:28:58.636Z,29.50
2019-06-20T14:31:26.862Z,29.00
2019-06-20T14:33:55.572Z,28.00
2019-06-20T14:36:23.952Z,27.20
2019-06-20T14:38:52.155Z,26.70
2019-06-20T14:41:20.355Z,26.50
2019-06-20T14:43:49.646Z,26.10
2019-06-20T14:46:17.979Z,25.90
2019-06-20T14:48:47.313Z,25.60
2019-06-20T14:51:16.130Z,25.40
2019-06-20T14:53:45.640Z,25.20
2019-06-20T14:56:14.023Z,25.10
2019-06-20T14:58:44.756Z,25.00
2019-06-20T15:01:12.188Z,24.80
2019-06-20T15:03:40.388Z,24.60
2019-06-20T15:06:08.789Z,23.70
2019-06-20T15:08:36.986Z,22.90
2019-06-20T15:11:05.189Z,22.10
2019-06-20T15:13:33.397Z,21.40
2019-06-20T15:16:01.609Z,20.90
2019-06-20T15:18:29.815Z,20.60
2019-06-20T15:20:59.479Z,20.40
2019-06-20T15:23:28.014Z,20.10
2019-06-20T15:25:56.310Z,19.80
2019-06-20T15:28:24.555Z,19.60
2019-06-20T15:30:52.834Z,19.40
2019-06-20T15:33:21.057Z,19.30
2019-06-20T15:35:50.743Z,19.10
2019-06-20T15:38:19.202Z,18.80
2019-06-20T15:40:49.370Z,18.70
2019-06-20T15:43:17.329Z,18.50
2019-06-20T15:45:45.534Z,18.40
2019-06-20T15:48:13.745Z,18.40
2019-06-20T15:50:41.957Z,18.30
2019-06-20T15:53:10.185Z,18.20
2019-06-20T15:55:38.392Z,18.20
2019-06-20T15:58:06.622Z,18.20
2019-06-20T16:00:34.823Z,18.20
2019-06-20T16:03:09.797Z,18.30
2019-06-20T16:05:32.976Z,18.30
2019-06-20T16:08:01.184Z,18.50
2019-06-20T16:10:29.477Z,18.90
2019-06-20T16:12:57.684Z,19.20
2019-06-20T16:15:25.918Z,19.80
2019-06-20T16:17:54.108Z,20.50
2019-06-20T16:20:22.325Z,21.00
2019-06-20T16:22:50.532Z,21.40
2019-06-20T16:25:18.740Z,21.90
2019-06-20T16:27:46.953Z,22.40
2019-06-20T16:30:15.157Z,22.70
2019-06-20T16:32:43.406Z,23.00
2019-06-20T16:35:11.648Z,23.00
2019-06-20T16:37:39.873Z,23.00
2019-06-20T16:40:08.988Z,22.90
2019-06-20T16:42:37.205Z,23.10
2019-06-20T16:45:07.856Z,23.60
2019-06-20T16:47:36.069Z,23.10
2019-06-20T16:50:07.407Z,22.80
2019-06-20T16:52:35.629Z,22.80
2019-06-20T16:55:04.768Z,22.70
2019-06-20T16:57:33.028Z,22.80
2019-06-20T17:00:01.259Z,22.70
2019-06-20T17:02:29.487Z,22.60
2019-06-20T17:04:57.680Z,22.50
2019-06-20T17:07:25.880Z,22.20
2019-06-20T17:09:54.103Z,22.00
2019-06-20T17:12:22.308Z,21.70
2019-06-20T17:14:50.520Z,21.60
2019-06-20T17:17:18.725Z,21.40
2019-06-20T17:19:46.938Z,21.20
2019-06-20T17:22:15.132Z,21.00
2019-06-20T17:24:43.344Z,20.80
2019-06-20T17:27:11.545Z,20.60
2019-06-20T17:29:39.759Z,20.40
2019-06-20T17:32:07.963Z,20.20
2019-06-20T17:34:36.168Z,20.20
2019-06-20T17:37:04.376Z,20.10
2019-06-20T17:39:32.589Z,20.00
2019-06-20T17:42:00.802Z,20.00
2019-06-20T17:44:29.649Z,20.00
2019-06-20T17:46:57.986Z,20.00
2019-06-20T17:49:26.389Z,20.10
2019-06-20T17:51:54.605Z,20.10
2019-06-20T17:54:22.809Z,20.10
2019-06-20T17:56:51.032Z,20.10
2019-06-20T17:59:22.574Z,20.10
2019-06-20T18:01:49.251Z,20.10
2019-06-20T18:04:17.433Z,20.10
2019-06-20T18:06:45.647Z,20.20
2019-06-20T18:09:13.866Z,20.10
2019-06-20T18:11:42.069Z,20.10
2019-06-20T18:14:10.283Z,20.10
2019-06-20T18:16:38.476Z,20.10
2019-06-20T18:19:06.700Z,20.10
2019-06-20T18:21:34.901Z,20.10
2019-06-20T18:24:03.147Z,20.10
2019-06-20T18:26:31.336Z,20.00
2019-06-20T18:28:59.547Z,19.90
2019-06-20T18:31:27.816Z,19.80
2019-06-20T18:33:56.048Z,19.80
2019-06-20T18:36:24.256Z,19.70
2019-06-20T18:38:52.464Z,19.70
2019-06-20T18:41:20.685Z,19.60
2019-06-20T18:43:48.948Z,19.60
2019-06-20T18:46:17.199Z,19.60
2019-06-20T18:48:45.444Z,19.60
2019-06-20T18:51:13.719Z,19.60
2019-06-20T18:53:41.953Z,19.40
2019-06-20T18:56:10.178Z,19.30
2019-06-20T18:58:38.441Z,19.20
2019-06-20T19:01:06.694Z,19.10
2019-06-20T19:03:34.905Z,19.00
2019-06-20T19:06:03.172Z,19.00
2019-06-20T19:08:31.369Z,19.00
2019-06-20T19:10:59.628Z,18.90
2019-06-20T19:13:27.931Z,18.80
2019-06-20T19:15:56.194Z,18.70
2019-06-20T19:18:24.430Z,18.50
2019-06-20T19:20:52.636Z,18.30
2019-06-20T19:23:20.962Z,18.20
2019-06-20T19:25:49.257Z,18.00
2019-06-20T19:28:17.572Z,17.90
2019-06-20T19:30:48.546Z,17.90
2019-06-20T19:33:16.777Z,17.80
2019-06-20T19:35:45.028Z,17.80
2019-06-20T19:38:13.265Z,17.80
2019-06-20T19:40:47.358Z,17.80
2019-06-20T19:43:15.570Z,17.90
2019-06-20T19:45:43.812Z,17.90
2019-06-20T19:48:12.020Z,17.80
2019-06-20T19:50:40.568Z,17.80
2019-06-20T19:53:08.908Z,17.70
2019-06-20T19:55:37.212Z,17.70
2019-06-20T19:58:05.438Z,17.70
2019-06-20T20:00:33.668Z,17.70
2019-06-20T20:03:01.980Z,17.70
2019-06-20T20:05:30.293Z,17.60
2019-06-20T20:07:58.564Z,17.60
2019-06-20T20:10:32.607Z,17.60
2019-06-20T20:13:00.832Z,17.60
2019-06-20T20:15:29.038Z,17.60
2019-06-20T20:17:57.327Z,17.50
2019-06-20T20:20:25.560Z,17.40
2019-06-20T20:22:53.917Z,17.40
2019-06-20T20:25:22.115Z,17.40
2019-06-20T20:27:50.317Z,17.40
2019-06-20T20:30:18.546Z,17.30
2019-06-20T20:32:46.771Z,17.30
2019-06-20T20:35:14.965Z,17.20
2019-06-20T20:37:43.216Z,17.20
2019-06-20T20:40:11.431Z,17.10
2019-06-20T20:42:39.638Z,17.10
2019-06-20T20:45:07.889Z,17.10
2019-06-20T20:47:36.084Z,17.10
2019-06-20T20:50:06.136Z,17.00
2019-06-20T20:52:34.344Z,16.90
2019-06-20T20:55:02.628Z,16.90
2019-06-20T20:57:30.855Z,16.80
2019-06-20T20:59:59.082Z,16.80
2019-06-20T21:02:27.285Z,16.80
2019-06-20T21:04:55.494Z,16.80
2019-06-20T21:07:23.798Z,16.90
2019-06-20T21:09:52.032Z,16.90
2019-06-20T21:12:20.246Z,16.90
2019-06-20T21:14:48.557Z,17.00
2019-06-20T21:17:16.901Z,17.00
2019-06-20T21:19:45.181Z,16.90
2019-06-20T21:22:13.418Z,16.90
2019-06-20T21:24:41.740Z,16.80
2019-06-20T21:27:10.198Z,16.80
2019-06-20T21:29:38.468Z,16.70
2019-06-20T21:32:06.705Z,16.60
2019-06-20T21:34:34.881Z,16.50
2019-06-20T21:37:03.108Z,16.50
2019-06-20T21:39:31.334Z,16.40
2019-06-20T21:41:59.532Z,16.40
2019-06-20T21:44:27.766Z,16.40
2019-06-20T21:46:56.758Z,16.40
2019-06-20T21:49:24.985Z,16.30
2019-06-20T21:51:53.263Z,16.30
2019-06-20T21:54:21.535Z,16.30
2019-06-20T21:56:49.727Z,16.30
2019-06-20T21:59:17.934Z,16.40
2019-06-20T22:01:48.346Z,16.40
2019-06-20T22:04:16.156Z,16.40
2019-06-20T22:06:44.355Z,16.30
2019-06-20T22:09:12.583Z,16.30
2019-06-20T22:11:40.796Z,16.30
2019-06-20T22:14:09.006Z,16.30
2019-06-20T22:16:37.224Z,16.30
2019-06-20T22:19:05.444Z,16.20
2019-06-20T22:21:33.659Z,16.20
2019-06-20T22:24:01.922Z,16.20
2019-06-20T22:26:30.190Z,16.20
2019-06-20T22:28:58.480Z,16.20
2019-06-20T22:31:26.688Z,16.30
2019-06-20T22:33:54.896Z,16.30
2019-06-20T22:36:38.775Z,16.20
2019-06-20T22:38:53.058Z,16.20
2019-06-20T22:41:21.256Z,16.20
2019-06-20T22:43:49.477Z,16.20
2019-06-20T22:46:17.675Z,16.10
2019-06-20T22:48:45.925Z,16.00
2019-06-20T22:51:14.202Z,16.00
2019-06-20T22:53:42.400Z,16.00
2019-06-20T22:56:10.604Z,16.00
2019-06-20T22:58:38.822Z,16.00
2019-06-20T23:01:07.041Z,15.90
2019-06-20T23:03:35.228Z,15.90
2019-06-20T23:06:03.445Z,15.90
2019-06-20T23:08:31.657Z,15.80
2019-06-20T23:10:59.874Z,15.80
2019-06-20T23:13:28.079Z,15.70
2019-06-20T23:15:56.285Z,15.70
2019-06-20T23:18:24.524Z,15.60
2019-06-20T23:21:04.225Z,15.50
2019-06-20T23:23:22.653Z,15.50
2019-06-20T23:25:52.506Z,15.50
2019-06-20T23:28:20.709Z,15.50
2019-06-20T23:30:48.935Z,15.50
2019-06-20T23:33:17.184Z,15.40
2019-06-20T23:35:45.399Z,15.40
2019-06-20T23:38:13.615Z,15.30
2019-06-20T23:40:42.489Z,15.30
2019-06-20T23:43:10.763Z,15.20
2019-06-20T23:45:38.995Z,15.10
2019-06-20T23:48:07.227Z,15.10
2019-06-20T23:50:35.447Z,15.00
2019-06-20T23:53:05.288Z,15.00
2019-06-20T23:55:33.508Z,14.90
2019-06-20T23:58:01.803Z,14.90
